Terminal Aerodrome Forecast
Issued by NWS Charleston, WV

Current Version | Previous Version | Graphics & Text | Print | Product List | Glossary On
Versions: 1 2 3 4 5 6 7 8 9 10 11 12 13 14 15 16 17 18 19 20 21 22 23 24 25 26 27
873
FTUS41 KRLX 172231 AAC
TAFPKB
TAF AMD
KPKB 172231Z 1723/1818 30011G19KT P6SM BKN045
     FM172315 30009G15KT P6SM SKC
     FM180100 32006KT P6SM SKC
     FM180600 VRB03KT P6SM SKC
     FM181500 18004KT P6SM BKN050=

USA.gov is the U.S. government's official web portal to all federal, state and local government web resources and services.